LFHP

Le Puy-Loudes Airport

Airport
ICAO code
LFHP
IATA Code
LPY
Summary
ICAO Region
EUR
ICAO Territory
Location

, Auvergne

Serving
Le Puy
Elevation
2731 ft
Coordinates
45° 4' 50" N , 3° 45' 46" E
Metar
Observation
LFHP 171000Z AUTO VRB04KT 9999 FEW029/// SCT035/// OVC064/// ///TCU 22/15 Q1013
Station
Le Puy
Date/Time
2022-08-17 10:00:00
Wind speed
04 kts
Lowest cloud amount
few clouds
Temperature
22°C
Dew point
15°C
Humidity
64%
QNH
1013 hPa
Weather condition
n/a

Runways

Designator Length Width Surface Rops
15R/33L 767 58 GRS No/No
15/33 1445 30 ASP No/No

Airport map

Aerial View

SKYbrary Partners:

Safety knowledge contributed by: